createdAt,value
2022-09-21T00:01:56.110Z,98449.75
2022-09-21T00:04:58.426Z,98443.94
2022-09-21T00:08:01.688Z,98456.66
2022-09-21T00:11:06.029Z,98447.03
2022-09-21T00:14:12.357Z,98445.38
2022-09-21T00:17:15.089Z,98444.41
2022-09-21T00:20:17.044Z,98457.09
2022-09-21T00:23:20.144Z,98444.19
2022-09-21T00:26:24.479Z,98450.09
2022-09-21T00:29:26.856Z,98453.44
2022-09-21T00:32:32.910Z,98453.44
2022-09-21T00:35:36.054Z,98450.38
2022-09-21T00:38:38.762Z,98441.09
2022-09-21T00:41:40.770Z,98445.34
2022-09-21T00:44:43.051Z,98438.94
2022-09-21T00:47:45.690Z,98426.59
2022-09-21T00:50:51.473Z,98433.00
2022-09-21T00:53:57.041Z,98438.69
2022-09-21T00:57:03.167Z,98440.84
2022-09-21T01:00:09.253Z,98442.16
2022-09-21T01:03:12.560Z,98439.41
2022-09-21T01:06:16.131Z,98436.34
2022-09-21T01:09:18.846Z,98438.97
2022-09-21T01:12:29.978Z,98436.69
2022-09-21T01:15:46.292Z,98436.09
2022-09-21T01:19:01.269Z,98433.50
2022-09-21T01:22:15.661Z,98434.69
2022-09-21T01:25:32.337Z,98442.97
2022-09-21T01:28:52.888Z,98442.75
2022-09-21T01:32:05.532Z,98445.34
2022-09-21T01:35:15.514Z,98451.31
2022-09-21T01:38:27.779Z,98450.59
2022-09-21T01:41:31.095Z,98452.97
2022-09-21T01:44:41.439Z,98450.59
2022-09-21T01:47:43.956Z,98452.97
2022-09-21T01:50:50.215Z,98444.97
2022-09-21T01:54:00.012Z,98445.94
2022-09-21T01:57:08.726Z,98451.31
2022-09-21T02:00:11.593Z,98452.47
2022-09-21T02:03:29.550Z,98448.78
2022-09-21T02:06:35.112Z,98450.59
2022-09-21T02:09:37.468Z,98451.78
2022-09-21T02:12:41.009Z,98457.09
2022-09-21T02:15:54.036Z,98458.69
2022-09-21T02:19:12.687Z,98448.47
2022-09-21T02:22:30.069Z,98452.25
2022-09-21T02:25:45.026Z,98457.69
2022-09-21T02:28:53.807Z,98451.41
2022-09-21T02:31:59.958Z,98457.94
2022-09-21T02:35:11.499Z,98465.66
2022-09-21T02:38:26.674Z,98459.00
2022-09-21T02:41:40.708Z,98460.69
2022-09-21T02:44:57.707Z,98459.84
2022-09-21T02:48:07.679Z,98472.91
2022-09-21T02:51:17.643Z,98475.97
2022-09-21T02:54:26.461Z,98472.91
2022-09-21T02:57:28.755Z,98474.88
2022-09-21T03:00:31.258Z,98476.94
2022-09-21T03:03:36.304Z,98472.19
2022-09-21T03:06:38.987Z,98477.66
2022-09-21T03:09:40.879Z,98488.69
2022-09-21T03:12:45.855Z,98476.00
2022-09-21T03:15:47.666Z,98482.19
2022-09-21T03:18:49.363Z,98499.88
2022-09-21T03:21:51.591Z,98490.59
2022-09-21T03:24:58.563Z,98495.69
2022-09-21T03:28:01.364Z,98495.22
2022-09-21T03:31:03.682Z,98495.94
2022-09-21T03:34:05.484Z,98492.38
2022-09-21T03:37:08.521Z,98502.38
2022-09-21T03:40:12.726Z,98501.28
2022-09-21T03:43:14.985Z,98503.09
2022-09-21T03:46:18.347Z,98507.13
2022-09-21T03:49:20.394Z,98511.97
2022-09-21T03:52:22.203Z,98508.31
2022-09-21T03:55:24.516Z,98511.75
2022-09-21T03:58:26.405Z,98506.16
2022-09-21T04:01:28.292Z,98504.38
2022-09-21T04:04:30.106Z,98509.00
2022-09-21T04:07:35.379Z,98511.13
2022-09-21T04:10:41.410Z,98516.38
2022-09-21T04:13:43.704Z,98519.94
2022-09-21T04:16:46.631Z,98521.81
2022-09-21T04:19:49.070Z,98528.47
2022-09-21T04:22:52.835Z,98513.28
2022-09-21T04:25:56.241Z,98522.88
2022-09-21T04:28:58.246Z,98525.13
2022-09-21T04:32:00.166Z,98528.81
2022-09-21T04:35:02.944Z,98537.00
2022-09-21T04:38:05.309Z,98539.13
2022-09-21T04:41:07.150Z,98539.13
2022-09-21T04:44:09.457Z,98553.56
2022-09-21T04:47:11.963Z,98546.47
2022-09-21T04:50:14.695Z,98544.00
2022-09-21T04:53:17.517Z,98537.91
2022-09-21T04:56:19.905Z,98540.88
2022-09-21T04:59:22.602Z,98527.31
2022-09-21T05:02:24.972Z,98520.44
2022-09-21T05:05:27.542Z,98539.09
2022-09-21T05:08:48.369Z,98534.56
2022-09-21T05:11:50.342Z,98529.84
2022-09-21T05:14:53.133Z,98544.69
2022-09-21T05:17:55.005Z,98541.47
2022-09-21T05:20:57.566Z,98553.34
2022-09-21T05:23:59.396Z,98545.06
2022-09-21T05:27:01.920Z,98554.56
2022-09-21T05:30:05.481Z,98559.31
2022-09-21T05:33:08.994Z,98561.00
2022-09-21T05:36:32.166Z,98562.19
2022-09-21T05:39:35.133Z,98564.66
2022-09-21T05:42:37.977Z,98569.34
2022-09-21T05:45:47.932Z,98569.44
2022-09-21T05:49:03.627Z,98564.69
2022-09-21T05:52:15.643Z,98565.16
2022-09-21T05:55:36.574Z,98564.34
2022-09-21T05:58:52.906Z,98576.47
2022-09-21T06:01:59.978Z,98569.59
2022-09-21T06:05:02.974Z,98568.50
2022-09-21T06:08:04.908Z,98578.94
2022-09-21T06:11:06.624Z,98579.06
2022-09-21T06:14:08.398Z,98577.47
2022-09-21T06:17:10.163Z,98582.13
2022-09-21T06:20:12.019Z,98576.91
2022-09-21T06:23:14.904Z,98570.41
2022-09-21T06:26:17.904Z,98568.50
2022-09-21T06:29:23.715Z,98568.28
2022-09-21T06:32:25.612Z,98575.66
2022-09-21T06:35:28.976Z,98569.25
2022-09-21T06:38:31.149Z,98567.03
2022-09-21T06:41:32.970Z,98569.34
2022-09-21T06:44:34.715Z,98564.28
2022-09-21T06:47:36.677Z,98579.50
2022-09-21T06:50:38.790Z,98580.25
2022-09-21T06:53:40.609Z,98594.28
2022-09-21T06:56:43.489Z,98596.50
2022-09-21T06:59:45.353Z,98602.00
2022-09-21T07:02:47.187Z,98606.41
2022-09-21T07:05:49.739Z,98607.13
2022-09-21T07:12:15.940Z,98608.41
2022-09-21T07:15:19.367Z,98605.06
2022-09-21T07:18:22.111Z,98607.25
2022-09-21T07:21:23.863Z,98615.41
2022-09-21T07:24:25.731Z,98607.28
2022-09-21T07:27:29.284Z,98606.13
2022-09-21T07:30:31.120Z,98618.25
2022-09-21T07:33:35.985Z,98602.00
2022-09-21T07:36:37.993Z,98601.59
2022-09-21T07:39:39.796Z,98604.75
2022-09-21T07:42:41.531Z,98608.91
2022-09-21T07:45:43.760Z,98609.06
2022-09-21T07:48:45.658Z,98620.25
2022-09-21T07:51:47.477Z,98623.84
2022-09-21T07:54:49.302Z,98625.19
2022-09-21T07:58:09.512Z,98630.16
2022-09-21T08:01:12.311Z,98633.06
2022-09-21T08:04:14.414Z,98629.59
2022-09-21T08:07:16.348Z,98633.59
2022-09-21T08:10:18.406Z,98625.41
2022-09-21T08:13:20.226Z,98633.16
2022-09-21T08:16:22.641Z,98632.41
2022-09-21T08:19:26.748Z,98630.94
2022-09-21T08:22:28.730Z,98637.56
2022-09-21T08:25:30.682Z,98637.06
2022-09-21T08:28:33.921Z,98629.53
2022-09-21T08:31:36.005Z,98644.75
2022-09-21T08:34:37.919Z,98636.47
2022-09-21T08:37:39.659Z,98643.63
2022-09-21T08:40:41.541Z,98646.19
2022-09-21T08:43:45.378Z,98652.53
2022-09-21T08:46:51.629Z,98654.28
2022-09-21T08:49:57.034Z,98658.13
2022-09-21T08:53:04.308Z,98652.06
2022-09-21T08:56:06.684Z,98653.47
2022-09-21T08:59:13.672Z,98653.16
2022-09-21T09:02:28.942Z,98650.38
2022-09-21T09:05:55.753Z,98643.72
2022-09-21T09:09:19.329Z,98643.50
2022-09-21T09:12:47.134Z,98661.13
2022-09-21T09:15:52.647Z,98644.84
2022-09-21T09:19:17.057Z,98657.72
2022-09-21T09:22:25.677Z,98648.38
2022-09-21T09:25:27.576Z,98656.03
2022-09-21T09:28:33.134Z,98648.50
2022-09-21T09:31:36.813Z,98654.31
2022-09-21T09:34:46.290Z,98658.72
2022-09-21T09:37:48.788Z,98641.97
2022-09-21T09:41:24.402Z,98648.03
2022-09-21T09:44:45.274Z,98633.81
2022-09-21T09:48:15.999Z,98636.50
2022-09-21T09:51:19.427Z,98625.13
2022-09-21T09:54:23.065Z,98633.28
2022-09-21T09:57:29.764Z,98628.84
2022-09-21T10:00:31.757Z,98627.63
2022-09-21T10:03:34.713Z,98623.88
2022-09-21T10:06:42.362Z,98620.28
2022-09-21T10:09:47.560Z,98628.53
2022-09-21T10:12:51.930Z,98627.47
2022-09-21T10:16:13.182Z,98616.84
2022-09-21T10:19:22.952Z,98607.34
2022-09-21T10:22:24.893Z,98601.53
2022-09-21T10:25:27.369Z,98604.25
2022-09-21T10:28:30.189Z,98603.44
2022-09-21T10:31:32.116Z,98609.31
2022-09-21T10:34:35.895Z,98603.63
2022-09-21T10:37:42.982Z,98607.22
2022-09-21T10:40:44.909Z,98604.56
2022-09-21T10:43:48.538Z,98604.75
2022-09-21T10:46:51.356Z,98599.78
2022-09-21T10:49:58.313Z,98601.44
2022-09-21T10:53:01.374Z,98601.69
2022-09-21T10:56:24.333Z,98613.78
2022-09-21T10:59:30.204Z,98606.78
2022-09-21T11:02:35.994Z,98606.56
2022-09-21T11:05:40.390Z,98605.00
2022-09-21T11:09:18.822Z,98616.28
2022-09-21T11:12:33.238Z,98611.59
2022-09-21T11:15:58.905Z,98617.50
2022-09-21T11:19:33.397Z,98621.16
2022-09-21T11:22:44.679Z,98613.66
2022-09-21T11:25:48.866Z,98621.94
2022-09-21T11:29:00.493Z,98618.81
2022-09-21T11:32:11.553Z,98613.66
2022-09-21T11:35:43.552Z,98604.31
2022-09-21T11:38:59.074Z,98598.59
2022-09-21T11:42:28.051Z,98605.00
2022-09-21T11:45:49.785Z,98598.97
2022-09-21T11:49:17.442Z,98600.44
2022-09-21T11:52:58.363Z,98588.88
2022-09-21T11:56:05.785Z,98585.06
2022-09-21T12:00:01.359Z,98591.19
2022-09-21T12:04:03.723Z,98580.94
2022-09-21T12:07:41.041Z,98590.50
2022-09-21T12:10:55.096Z,98589.97
2022-09-21T12:14:08.121Z,98583.09
2022-09-21T12:17:18.720Z,98600.06
2022-09-21T12:20:26.682Z,98591.06
2022-09-21T12:23:49.901Z,98595.28
2022-09-21T12:27:05.144Z,98596.28
2022-09-21T12:30:18.694Z,98592.13
2022-09-21T12:33:33.709Z,98589.81
2022-09-21T12:36:56.651Z,98582.50
2022-09-21T12:40:25.402Z,98584.53
2022-09-21T12:43:53.545Z,98581.69
2022-09-21T12:47:09.639Z,98574.34
2022-09-21T12:50:37.851Z,98579.28
2022-09-21T12:53:45.273Z,98593.69
2022-09-21T12:56:56.115Z,98585.63
2022-09-21T13:00:04.495Z,98580.94
2022-09-21T13:04:03.854Z,98583.97
2022-09-21T13:07:30.713Z,98572.91
2022-09-21T13:10:42.020Z,98578.38
2022-09-21T13:13:53.092Z,98578.53
2022-09-21T13:17:01.099Z,98576.03
2022-09-21T13:20:06.133Z,98586.41
2022-09-21T13:23:20.878Z,98580.63
2022-09-21T13:26:32.899Z,98578.97
2022-09-21T13:29:36.824Z,98586.34
2022-09-21T13:32:57.533Z,98583.38
2022-09-21T13:36:02.549Z,98579.13
2022-09-21T13:39:15.210Z,98578.28
2022-09-21T13:42:29.556Z,98573.81
2022-09-21T13:45:34.610Z,98573.00
2022-09-21T13:48:37.613Z,98565.75
2022-09-21T13:52:08.449Z,98563.47
2022-09-21T13:55:42.325Z,98567.78
2022-09-21T13:58:47.564Z,98561.31
2022-09-21T14:01:50.871Z,98563.94
2022-09-21T14:04:52.929Z,98567.63
2022-09-21T14:08:02.447Z,98560.09
2022-09-21T14:11:27.754Z,98564.91
2022-09-21T14:14:34.061Z,98570.50
2022-09-21T14:17:40.782Z,98573.69
2022-09-21T14:21:08.841Z,98572.63
2022-09-21T14:24:20.629Z,98579.16
2022-09-21T14:27:32.197Z,98579.63
2022-09-21T14:30:35.787Z,98570.50
2022-09-21T14:33:48.321Z,98583.69
2022-09-21T14:36:51.497Z,98583.28
2022-09-21T14:39:53.769Z,98580.16
2022-09-21T14:42:58.740Z,98577.66
2022-09-21T14:46:03.634Z,98582.41
2022-09-21T14:49:46.349Z,98577.53
2022-09-21T14:52:53.742Z,98570.63
2022-09-21T14:56:22.094Z,98569.91
2022-09-21T14:59:42.776Z,98568.72
2022-09-21T15:02:44.981Z,98566.88
2022-09-21T15:05:52.396Z,98561.03
2022-09-21T15:09:55.322Z,98559.00
2022-09-21T15:12:59.334Z,98555.78
2022-09-21T15:16:26.505Z,98561.41
2022-09-21T15:19:29.147Z,98549.94
2022-09-21T15:22:32.289Z,98555.28
2022-09-21T15:25:34.489Z,98557.00
2022-09-21T15:29:05.161Z,98558.31
2022-09-21T15:32:02.847Z,98558.94
2022-09-21T15:35:16.496Z,98558.81
2022-09-21T15:38:32.724Z,98561.06
2022-09-21T15:41:41.982Z,98566.50
2022-09-21T15:44:48.827Z,98573.56
2022-09-21T15:47:52.030Z,98565.16
2022-09-21T15:50:59.958Z,98564.72
2022-09-21T15:54:09.949Z,98562.22
2022-09-21T15:57:39.436Z,98570.94
2022-09-21T16:00:53.953Z,98570.41
2022-09-21T16:04:06.575Z,98575.94
2022-09-21T16:07:24.720Z,98578.19
2022-09-21T16:10:37.770Z,98583.06
2022-09-21T16:13:58.234Z,98581.09
2022-09-21T16:17:06.780Z,98585.69
2022-09-21T16:20:23.630Z,98592.06
2022-09-21T16:23:30.087Z,98590.41
2022-09-21T16:26:37.014Z,98588.88
2022-09-21T16:29:39.606Z,98588.44
2022-09-21T16:32:42.594Z,98602.69
2022-09-21T16:35:44.769Z,98605.31
2022-09-21T16:38:56.462Z,98613.03
2022-09-21T16:42:02.412Z,98613.16
2022-09-21T16:45:11.451Z,98617.28
2022-09-21T16:48:13.685Z,98616.63
2022-09-21T16:51:22.566Z,98617.97
2022-09-21T16:54:26.377Z,98617.69
2022-09-21T16:57:29.270Z,98613.94
2022-09-21T17:00:35.029Z,98620.72
2022-09-21T17:03:37.039Z,98622.09
2022-09-21T17:06:44.986Z,98618.22
2022-09-21T17:09:48.074Z,98611.88
2022-09-21T17:12:51.239Z,98622.63
2022-09-21T17:15:53.945Z,98610.34
2022-09-21T17:18:56.083Z,98609.59
2022-09-21T17:22:00.125Z,98622.69
2022-09-21T17:25:02.233Z,98624.78
2022-09-21T17:28:13.703Z,98626.63
2022-09-21T17:31:16.922Z,98631.50
2022-09-21T17:34:19.447Z,98638.81
2022-09-21T17:37:22.577Z,98638.91
2022-09-21T17:40:25.095Z,98634.63
2022-09-21T17:43:54.893Z,98644.34
2022-09-21T17:47:09.797Z,98643.34
2022-09-21T17:50:21.079Z,98645.84
2022-09-21T17:53:37.821Z,98641.56
2022-09-21T17:56:54.744Z,98651.25
2022-09-21T18:00:05.249Z,98649.03
2022-09-21T18:03:41.314Z,98649.69
2022-09-21T18:06:43.811Z,98660.53
2022-09-21T18:09:46.629Z,98656.56
2022-09-21T18:13:12.206Z,98658.47
2022-09-21T18:16:33.940Z,98649.69
2022-09-21T18:19:45.759Z,98656.66
2022-09-21T18:22:58.843Z,98670.00
2022-09-21T18:26:01.661Z,98670.22
2022-09-21T18:29:22.453Z,98671.66
2022-09-21T18:32:57.479Z,98670.41
2022-09-21T18:36:12.032Z,98677.78
2022-09-21T18:39:38.291Z,98682.44
2022-09-21T18:43:00.500Z,98673.63
2022-09-21T18:46:05.966Z,98683.50
2022-09-21T18:49:23.829Z,98677.53
2022-09-21T18:52:32.253Z,98671.22
2022-09-21T18:55:36.651Z,98678.16
2022-09-21T18:58:39.833Z,98677.28
2022-09-21T19:01:47.233Z,98681.13
2022-09-21T19:04:50.071Z,98679.81
2022-09-21T19:08:01.980Z,98677.88
2022-09-21T19:11:16.215Z,98682.78
2022-09-21T19:14:36.286Z,98689.56
2022-09-21T19:18:04.598Z,98694.56
2022-09-21T19:21:09.835Z,98693.25
2022-09-21T19:24:19.253Z,98692.16
2022-09-21T19:27:27.288Z,98682.53
2022-09-21T19:30:30.832Z,98681.66
2022-09-21T19:33:49.414Z,98671.63
2022-09-21T19:36:52.417Z,98670.81
2022-09-21T19:39:54.688Z,98676.63
2022-09-21T19:43:06.347Z,98671.38
2022-09-21T19:46:20.679Z,98671.16
2022-09-21T19:49:24.369Z,98660.41
2022-09-21T19:52:32.539Z,98666.16
2022-09-21T19:55:53.016Z,98662.81
2022-09-21T19:59:16.493Z,98652.34
2022-09-21T20:02:32.649Z,98670.47
2022-09-21T20:05:45.996Z,98664.91
2022-09-21T20:09:13.773Z,98665.03
2022-09-21T20:12:23.183Z,98667.16
2022-09-21T20:15:34.036Z,98668.31
2022-09-21T20:18:45.791Z,98679.06
2022-09-21T20:21:51.069Z,98672.28
2022-09-21T20:25:10.105Z,98672.91
2022-09-21T20:28:12.312Z,98674.81
2022-09-21T20:31:14.633Z,98671.00
2022-09-21T20:34:16.676Z,98669.22
2022-09-21T20:37:19.426Z,98667.78
2022-09-21T20:40:26.844Z,98662.81
2022-09-21T20:43:32.587Z,98670.69
2022-09-21T20:46:34.931Z,98671.41
2022-09-21T20:49:37.172Z,98672.97
2022-09-21T20:52:43.101Z,98671.56
2022-09-21T20:55:57.044Z,98673.50
2022-09-21T20:58:59.258Z,98674.91
2022-09-21T21:02:01.112Z,98678.97
2022-09-21T21:05:03.920Z,98670.16
2022-09-21T21:08:06.666Z,98673.50
2022-09-21T21:11:10.231Z,98673.72
2022-09-21T21:14:12.078Z,98679.44
2022-09-21T21:17:17.450Z,98677.13
2022-09-21T21:20:19.280Z,98669.88
2022-09-21T21:23:21.368Z,98676.78
2022-09-21T21:26:38.191Z,98669.66
2022-09-21T21:29:46.398Z,98669.66
2022-09-21T21:32:52.398Z,98670.59
2022-09-21T21:36:07.202Z,98660.84
2022-09-21T21:39:10.032Z,98665.84
2022-09-21T21:42:12.619Z,98666.06
2022-09-21T21:45:14.396Z,98654.19
2022-09-21T21:48:16.385Z,98647.31
2022-09-21T21:51:18.242Z,98653.13
2022-09-21T21:54:24.355Z,98642.31
2022-09-21T21:57:26.116Z,98658.13
2022-09-21T22:00:27.965Z,98639.09
2022-09-21T22:03:30.024Z,98646.84
2022-09-21T22:06:33.802Z,98637.44
2022-09-21T22:09:35.656Z,98635.31
2022-09-21T22:12:37.460Z,98642.66
2022-09-21T22:15:39.514Z,98633.75
2022-09-21T22:18:42.365Z,98632.09
2022-09-21T22:21:53.250Z,98627.34
2022-09-21T22:24:56.631Z,98630.44
2022-09-21T22:27:58.557Z,98628.28
2022-09-21T22:31:02.870Z,98627.94
2022-09-21T22:34:05.566Z,98626.50
2022-09-21T22:37:07.425Z,98624.72
2022-09-21T22:40:09.844Z,98633.75
2022-09-21T22:43:15.868Z,98631.16
2022-09-21T22:46:18.007Z,98625.91
2022-09-21T22:49:19.805Z,98622.00
2022-09-21T22:52:21.548Z,98625.69
2022-09-21T22:55:23.358Z,98620.56
2022-09-21T22:58:25.122Z,98613.91
2022-09-21T23:01:40.402Z,98611.06
2022-09-21T23:04:42.271Z,98616.16
2022-09-21T23:07:44.063Z,98611.66
2022-09-21T23:10:45.845Z,98607.63
2022-09-21T23:13:48.266Z,98609.28
2022-09-21T23:16:50.391Z,98589.06
2022-09-21T23:19:52.215Z,98592.97
2022-09-21T23:22:53.890Z,98603.44
2022-09-21T23:26:06.359Z,98609.03
2022-09-21T23:29:12.705Z,98615.44
2022-09-21T23:32:14.884Z,98606.91
2022-09-21T23:35:16.733Z,98608.19
2022-09-21T23:38:18.702Z,98610.56
2022-09-21T23:41:33.722Z,98608.09
2022-09-21T23:44:35.663Z,98607.47
2022-09-21T23:47:37.458Z,98608.31
2022-09-21T23:50:39.345Z,98605.09
2022-09-21T23:53:42.021Z,98616.16
2022-09-21T23:56:43.925Z,98616.88
2022-09-21T23:59:45.638Z,98609.75
